Time,TemperatureF,DewpointF,PressureIn,WindDirection,WindDirectionDegrees,WindSpeedMPH,WindSpeedGustMPH,Humidity,HourlyPrecipIn,Conditions,Clouds,dailyrainin,SoftwareType,DateUTC
2013-06-18 00:02:00,76.9,72.0,29.82,WSW,252,2.0,11.0,84,0.00,,,0.00,weatherlink.com 1.10,2013-06-18 04:02:00,
2013-06-18 00:17:00,76.7,72.0,29.82,WSW,251,1.0,7.0,86,0.00,,,0.00,weatherlink.com 1.10,2013-06-18 04:17:00,
2013-06-18 00:32:00,76.7,72.0,29.81,WSW,256,4.0,6.0,86,0.00,,,0.00,weatherlink.com 1.10,2013-06-18 04:32:00,
2013-06-18 00:47:00,76.8,72.0,29.80,SSW,204,2.0,6.0,86,0.00,,,0.00,weatherlink.com 1.10,2013-06-18 04:47:00,
2013-06-18 01:03:00,76.5,72.0,29.79,SSW,193,5.0,7.0,87,0.00,,,0.00,weatherlink.com 1.10,2013-06-18 05:03:00,
2013-06-18 01:18:00,76.9,73.0,29.79,SSW,211,2.0,8.0,87,0.00,,,0.00,weatherlink.com 1.10,2013-06-18 05:18:00,
2013-06-18 01:33:00,76.7,73.0,29.79,SSW,205,2.0,8.0,87,0.00,,,0.00,weatherlink.com 1.10,2013-06-18 05:33:00,
2013-06-18 01:48:00,77.3,73.0,29.79,WSW,243,7.0,7.0,86,0.00,,,0.00,weatherlink.com 1.10,2013-06-18 05:48:00,
2013-06-18 02:04:00,76.7,73.0,29.78,SW,216,0.0,8.0,88,0.00,,,0.00,weatherlink.com 1.10,2013-06-18 06:04:00,
2013-06-18 02:19:00,76.4,73.0,29.77,WSW,245,2.0,6.0,88,0.00,,,0.00,weatherlink.com 1.10,2013-06-18 06:19:00,
2013-06-18 02:34:00,76.4,73.0,29.77,SW,224,6.0,12.0,89,0.00,,,0.00,weatherlink.com 1.10,2013-06-18 06:34:00,
2013-06-18 02:49:00,76.4,73.0,29.77,SW,218,4.0,6.0,90,0.00,,,0.00,weatherlink.com 1.10,2013-06-18 06:49:00,
2013-06-18 03:05:00,76.0,73.0,29.76,WSW,250,2.0,7.0,91,0.00,,,0.00,weatherlink.com 1.10,2013-06-18 07:05:00,
2013-06-18 03:21:00,75.5,73.0,29.75,WSW,245,3.0,4.0,91,0.00,,,0.00,weatherlink.com 1.10,2013-06-18 07:21:00,
2013-06-18 03:36:00,75.1,72.0,29.75,SSW,212,2.0,4.0,91,0.00,,,0.00,weatherlink.com 1.10,2013-06-18 07:36:00,
2013-06-18 03:51:00,74.7,72.0,29.75,SSW,205,2.0,2.0,92,0.00,,,0.00,weatherlink.com 1.10,2013-06-18 07:51:00,
2013-06-18 04:06:00,74.4,72.0,29.75,SSW,207,1.0,2.0,92,0.00,,,0.00,weatherlink.com 1.10,2013-06-18 08:06:00,
2013-06-18 04:21:00,74.1,72.0,29.74,South,184,2.0,3.0,92,0.00,,,0.00,weatherlink.com 1.10,2013-06-18 08:21:00,
2013-06-18 04:36:00,73.9,72.0,29.75,SSW,197,0.0,2.0,93,0.00,,,0.00,weatherlink.com 1.10,2013-06-18 08:36:00,
2013-06-18 04:51:00,73.7,72.0,29.75,South,191,0.0,1.0,93,0.00,,,0.00,weatherlink.com 1.10,2013-06-18 08:51:00,
2013-06-18 05:07:00,73.6,72.0,29.75,SSE,166,0.0,1.0,93,0.00,,,0.00,weatherlink.com 1.10,2013-06-18 09:07:00,
2013-06-18 05:22:00,73.7,72.0,29.76,SSW,205,0.0,1.0,94,0.00,,,0.00,weatherlink.com 1.10,2013-06-18 09:22:00,
2013-06-18 05:37:00,73.9,72.0,29.76,SW,229,1.0,2.0,94,0.00,,,0.00,weatherlink.com 1.10,2013-06-18 09:37:00,
2013-06-18 05:52:00,73.9,72.0,29.75,SW,219,0.0,2.0,94,0.00,,,0.00,weatherlink.com 1.10,2013-06-18 09:52:00,
2013-06-18 06:07:00,74.0,72.0,29.75,SSW,207,1.0,1.0,94,0.00,,,0.00,weatherlink.com 1.10,2013-06-18 10:07:00,
2013-06-18 06:23:00,74.2,72.0,29.76,SSW,203,1.0,2.0,94,0.00,,,0.00,weatherlink.com 1.10,2013-06-18 10:23:00,
2013-06-18 06:38:00,74.7,73.0,29.75,SW,217,1.0,2.0,94,0.00,,,0.00,weatherlink.com 1.10,2013-06-18 10:38:00,
2013-06-18 06:53:00,75.1,73.0,29.75,SW,229,1.0,2.0,93,0.00,,,0.00,weatherlink.com 1.10,2013-06-18 10:53:00,
2013-06-18 07:09:00,75.5,73.0,29.75,SW,214,1.0,2.0,93,0.00,,,0.00,weatherlink.com 1.10,2013-06-18 11:09:00,
2013-06-18 07:24:00,75.9,74.0,29.76,SSE,149,2.0,3.0,92,0.00,,,0.00,weatherlink.com 1.10,2013-06-18 11:24:00,
2013-06-18 07:39:00,76.3,73.0,29.75,WSW,245,1.0,7.0,90,0.00,,,0.00,weatherlink.com 1.10,2013-06-18 11:39:00,
2013-06-18 07:54:00,76.8,73.0,29.75,West,260,3.0,8.0,88,0.00,,,0.00,weatherlink.com 1.10,2013-06-18 11:54:00,
2013-06-18 08:09:00,77.9,74.0,29.75,SSW,212,5.0,7.0,86,0.00,,,0.00,weatherlink.com 1.10,2013-06-18 12:09:00,
2013-06-18 08:24:00,78.1,74.0,29.75,SSW,193,9.0,11.0,86,0.00,,,0.00,weatherlink.com 1.10,2013-06-18 12:24:00,
2013-06-18 08:41:00,77.8,73.0,29.75,WSW,256,5.0,8.0,86,0.00,,,0.00,weatherlink.com 1.10,2013-06-18 12:41:00,
2013-06-18 08:56:00,78.4,74.0,29.75,South,191,3.0,9.0,86,0.00,,,0.00,weatherlink.com 1.10,2013-06-18 12:56:00,
2013-06-18 09:11:00,79.2,74.0,29.75,SSW,203,6.0,10.0,84,0.00,,,0.00,weatherlink.com 1.10,2013-06-18 13:11:00,
2013-06-18 09:26:00,80.7,75.0,29.74,SSW,201,5.0,9.0,82,0.00,,,0.00,weatherlink.com 1.10,2013-06-18 13:26:00,
2013-06-18 09:41:00,81.8,76.0,29.74,NW,315,2.0,9.0,81,0.00,,,0.00,weatherlink.com 1.10,2013-06-18 13:41:00,
2013-06-18 09:56:00,81.6,75.0,29.74,SW,214,3.0,8.0,80,0.00,,,0.00,weatherlink.com 1.10,2013-06-18 13:56:00,
2013-06-18 10:11:00,80.8,74.0,29.73,SW,236,6.0,12.0,80,0.00,,,0.00,weatherlink.com 1.10,2013-06-18 14:11:00,
2013-06-18 10:27:00,80.7,74.0,29.73,SW,225,9.0,13.0,80,0.00,,,0.00,weatherlink.com 1.10,2013-06-18 14:27:00,
2013-06-18 10:42:00,80.6,74.0,29.73,West,273,8.0,14.0,81,0.00,,,0.00,weatherlink.com 1.10,2013-06-18 14:42:00,
2013-06-18 10:57:00,80.9,75.0,29.73,West,267,6.0,12.0,81,0.00,,,0.00,weatherlink.com 1.10,2013-06-18 14:57:00,
2013-06-18 11:12:00,81.4,74.0,29.73,WNW,297,7.0,10.0,79,0.00,,,0.00,weatherlink.com 1.10,2013-06-18 15:12:00,
2013-06-18 11:28:00,82.2,73.0,29.73,SW,236,10.0,12.0,73,0.00,,,0.00,weatherlink.com 1.10,2013-06-18 15:28:00,
2013-06-18 11:43:00,-999.0,-99.9,29.73,North,-999,-999.0,-999.0,-999,0.00,,,0.00,weatherlink.com 1.10,2013-06-18 15:43:00,
2013-06-18 11:58:00,-999.0,-99.9,29.72,North,-999,-999.0,-999.0,-999,0.00,,,0.00,weatherlink.com 1.10,2013-06-18 15:58:00,
2013-06-18 12:13:00,-999.0,-99.9,29.72,North,-999,-999.0,-999.0,-999,0.00,,,0.00,weatherlink.com 1.10,2013-06-18 16:13:00,
2013-06-18 12:28:00,-999.0,-99.9,29.72,North,-999,-999.0,-999.0,-999,0.00,,,0.00,weatherlink.com 1.10,2013-06-18 16:28:00,
2013-06-18 12:44:00,-999.0,-99.9,29.72,North,-999,-999.0,-999.0,-999,0.00,,,0.00,weatherlink.com 1.10,2013-06-18 16:44:00,
2013-06-18 12:59:00,-999.0,-99.9,29.71,North,-999,-999.0,-999.0,-999,0.00,,,0.00,weatherlink.com 1.10,2013-06-18 16:59:00,
2013-06-18 13:14:00,-999.0,-99.9,29.70,North,-999,-999.0,-999.0,-999,0.00,,,0.00,weatherlink.com 1.10,2013-06-18 17:14:00,
2013-06-18 13:29:00,-999.0,-99.9,29.70,North,-999,-999.0,-999.0,-999,0.00,,,0.00,weatherlink.com 1.10,2013-06-18 17:29:00,
2013-06-18 13:46:00,-999.0,-99.9,29.69,North,-999,-999.0,-999.0,-999,0.00,,,0.00,weatherlink.com 1.10,2013-06-18 17:46:00,
2013-06-18 14:02:00,-999.0,-99.9,29.68,North,-999,-999.0,-999.0,-999,0.00,,,0.00,weatherlink.com 1.10,2013-06-18 18:02:00,
2013-06-18 14:16:00,-999.0,-99.9,29.68,North,-999,-999.0,-999.0,-999,0.00,,,0.00,weatherlink.com 1.10,2013-06-18 18:16:00,
2013-06-18 14:31:00,-999.0,-99.9,29.68,North,-999,-999.0,-999.0,-999,0.00,,,0.00,weatherlink.com 1.10,2013-06-18 18:31:00,
2013-06-18 14:47:00,-999.0,-99.9,29.68,North,-999,-999.0,-999.0,-999,0.00,,,0.00,weatherlink.com 1.10,2013-06-18 18:47:00,
2013-06-18 15:02:00,-999.0,-99.9,29.68,North,-999,-999.0,-999.0,-999,0.00,,,0.00,weatherlink.com 1.10,2013-06-18 19:02:00,
2013-06-18 15:16:00,-999.0,-99.9,29.67,North,-999,-999.0,-999.0,-999,0.00,,,0.00,weatherlink.com 1.10,2013-06-18 19:16:00,
2013-06-18 15:32:00,-999.0,-99.9,29.66,North,-999,-999.0,-999.0,-999,0.00,,,0.00,weatherlink.com 1.10,2013-06-18 19:32:00,
2013-06-18 15:47:00,-999.0,-99.9,29.66,North,-999,-999.0,-999.0,-999,0.00,,,0.00,weatherlink.com 1.10,2013-06-18 19:47:00,
2013-06-18 16:03:00,-999.0,-99.9,29.66,North,-999,-999.0,-999.0,-999,0.00,,,0.00,weatherlink.com 1.10,2013-06-18 20:03:00,
2013-06-18 16:17:00,-999.0,-99.9,29.66,North,-999,-999.0,-999.0,-999,0.00,,,0.00,weatherlink.com 1.10,2013-06-18 20:17:00,
2013-06-18 16:33:00,-999.0,-99.9,29.65,North,-999,-999.0,-999.0,-999,0.00,,,0.00,weatherlink.com 1.10,2013-06-18 20:33:00,
2013-06-18 16:48:00,83.7,76.0,29.65,WSW,248,7.0,14.0,78,0.00,,,0.00,weatherlink.com 1.10,2013-06-18 20:48:00,
2013-06-18 17:04:00,84.0,77.0,29.64,South,170,11.0,13.0,80,0.00,,,0.00,weatherlink.com 1.10,2013-06-18 21:04:00,
2013-06-18 17:18:00,83.8,77.0,29.64,SSW,211,7.0,17.0,80,0.00,,,0.00,weatherlink.com 1.10,2013-06-18 21:18:00,
2013-06-18 17:33:00,83.9,78.0,29.64,WSW,248,8.0,15.0,81,0.00,,,0.00,weatherlink.com 1.10,2013-06-18 21:33:00,
2013-06-18 17:49:00,84.5,77.0,29.63,WSW,254,3.0,17.0,78,0.00,,,0.00,weatherlink.com 1.10,2013-06-18 21:49:00,
2013-06-18 18:05:00,84.4,76.0,29.63,SSW,195,5.0,15.0,76,0.00,,,0.00,weatherlink.com 1.10,2013-06-18 22:05:00,
2013-06-18 18:19:00,84.1,77.0,29.63,South,172,11.0,18.0,79,0.00,,,0.00,weatherlink.com 1.10,2013-06-18 22:19:00,
2013-06-18 18:36:00,83.9,78.0,29.62,SW,224,8.0,15.0,81,0.00,,,0.00,weatherlink.com 1.10,2013-06-18 22:36:00,
2013-06-18 18:51:00,83.3,77.0,29.61,South,174,9.0,16.0,80,0.00,,,0.00,weatherlink.com 1.10,2013-06-18 22:51:00,
2013-06-18 19:05:00,83.0,77.0,29.61,SSW,193,4.0,15.0,81,0.00,,,0.00,weatherlink.com 1.10,2013-06-18 23:05:00,
2013-06-18 19:21:00,82.5,76.0,29.61,SW,217,5.0,16.0,81,0.00,,,0.00,weatherlink.com 1.10,2013-06-18 23:21:00,
2013-06-18 19:36:00,82.0,76.0,29.62,WSW,257,9.0,17.0,82,0.00,,,0.00,weatherlink.com 1.10,2013-06-18 23:36:00,
2013-06-18 19:51:00,81.3,76.0,29.61,WSW,252,10.0,14.0,84,0.00,,,0.00,weatherlink.com 1.10,2013-06-18 23:51:00,
2013-06-18 20:06:00,80.8,76.0,29.61,WSW,239,9.0,16.0,85,0.00,,,0.00,weatherlink.com 1.10,2013-06-19 00:06:00,
2013-06-18 20:21:00,80.5,76.0,29.61,SSW,211,11.0,17.0,85,0.00,,,0.00,weatherlink.com 1.10,2013-06-19 00:21:00,
2013-06-18 20:36:00,80.3,76.0,29.62,WSW,240,13.0,18.0,86,0.00,,,0.00,weatherlink.com 1.10,2013-06-19 00:36:00,
2013-06-18 20:52:00,80.0,76.0,29.63,West,260,7.0,19.0,87,0.00,,,0.00,weatherlink.com 1.10,2013-06-19 00:52:00,
2013-06-18 21:07:00,79.9,76.0,29.62,SW,226,6.0,12.0,87,0.00,,,0.00,weatherlink.com 1.10,2013-06-19 01:07:00,
2013-06-18 21:22:00,79.8,76.0,29.63,West,260,8.0,17.0,87,0.00,,,0.00,weatherlink.com 1.10,2013-06-19 01:22:00,
2013-06-18 21:37:00,79.8,76.0,29.63,WSW,248,13.0,20.0,88,0.00,,,0.00,weatherlink.com 1.10,2013-06-19 01:37:00,
2013-06-18 21:53:00,80.0,76.0,29.64,SSW,200,12.0,22.0,87,0.00,,,0.00,weatherlink.com 1.10,2013-06-19 01:53:00,
2013-06-18 22:08:00,80.1,76.0,29.65,WSW,245,19.0,20.0,87,0.00,,,0.00,weatherlink.com 1.10,2013-06-19 02:08:00,
2013-06-18 22:23:00,80.1,76.0,29.65,WNW,288,10.0,18.0,87,0.00,,,0.00,weatherlink.com 1.10,2013-06-19 02:23:00,
2013-06-18 22:38:00,79.5,75.0,29.65,WSW,245,11.0,16.0,85,0.00,,,0.00,weatherlink.com 1.10,2013-06-19 02:38:00,
2013-06-18 22:53:00,79.0,72.0,29.66,West,260,5.0,15.0,80,0.00,,,0.00,weatherlink.com 1.10,2013-06-19 02:53:00,
2013-06-18 23:09:00,78.7,71.0,29.66,WNW,293,3.0,12.0,77,0.00,,,0.00,weatherlink.com 1.10,2013-06-19 03:09:00,
2013-06-18 23:24:00,78.2,70.0,29.66,West,274,2.0,10.0,76,0.00,,,0.00,weatherlink.com 1.10,2013-06-19 03:24:00,
2013-06-18 23:39:00,78.0,70.0,29.67,West,270,4.0,9.0,77,0.00,,,0.00,weatherlink.com 1.10,2013-06-19 03:39:00,
2013-06-18 23:54:00,77.9,71.0,29.67,West,269,6.0,11.0,79,0.00,,,0.00,weatherlink.com 1.10,2013-06-19 03:54:00,